EDDH/HAM METAR and TAF weather

Enter ICAO airport designator
Station Type Date Time Source
EDDH METAR 2020/01/27 13:50 UTC NOAA

EDDH 271350Z 21012KT 9999 BKN009 08/06 Q1004 TEMPO BKN015


Station Type Date Time Source
EDDH Decoded METAR 2020/01/27 13:50 UTC NOAA

Hamburg-Fuhlsbuettel, Germany (EDDH) 53-38N 010-00E 15M
Jan 27, 2020 - 08:50 AM EST / 2020.01.27 1350 UTC
Wind: from the SSW (210 degrees) at 14 MPH (12 KT):0
Visibility: greater than 7 mile(s):0
Sky conditions: mostly cloudy
Temperature: 46 F (8 C)
Dew Point: 42 F (6 C)
Relative Humidity: 87%
Pressure (altimeter): 29.65 in. Hg (1004 hPa)
ob: EDDH 271350Z 21012KT 9999 BKN009 08/06 Q1004 TEMPO BKN015
cycle: 14

Station Type Date Time Source
EDDH TAF 2020/01/27 12:27 UTC NOAA

TAF EDDH 271100Z 2712/2818 21013KT 9000 BKN011
TEMPO 2712/2720 BKN008
BECMG 2716/2718 16008KT
TEMPO 2720/2806 3500 RA BKN008
BECMG 2805/2808 23011KT SCT011 BKN020
TEMPO 2808/2810 BKN010
TEMPO 2810/2818 23015G25KT 4000 SHRA BKN006 BKN014CB PROB30
TEMPO 2814/2818 24020G35KT

Example: see airport list